Time;durP1;ratioP1;P1;durP2;ratioP2;P2;SDS_P1;SDS_P2;PMS_P1;PMS_P2;Temp;Humidity;BMP_temperature;BMP_pressure;BME280_temperature;BME280_humidity;BME280_pressure;Samples;Min_cycle;Max_cycle;Signal;HPM_P1;HPM_P2
2022/05/30 00:00:35;;;;;;;6.82;2.40;;;;;;;7.52;86.81;99303.00;12194662;19;20081;-82
2022/05/30 00:04:39;;;;;;;5.70;2.78;;;;;;;7.48;86.88;99302.66;12208329;19;20109;-82
2022/05/30 00:08:41;;;;;;;8.60;3.00;;;;;;;7.44;87.72;99297.94;12214592;19;20030;-83
2022/05/30 00:12:43;;;;;;;6.20;2.73;;;;;;;7.38;87.88;99290.66;12192345;19;20029;-81
2022/05/30 00:16:45;;;;;;;5.00;1.92;;;;;;;7.34;88.08;99281.25;12215172;19;20028;-82
2022/05/30 00:20:47;;;;;;;5.85;2.25;;;;;;;7.33;88.30;99293.28;12218069;19;20460;-82
2022/05/30 00:24:49;;;;;;;7.75;3.00;;;;;;;7.28;88.80;99291.25;12197845;19;20131;-81
2022/05/30 00:28:51;;;;;;;7.00;2.60;;;;;;;7.27;89.37;99293.16;12213209;19;20033;-81
2022/05/30 00:32:53;;;;;;;6.00;2.42;;;;;;;7.25;89.02;99289.00;12217314;19;20011;-81
2022/05/30 00:36:55;;;;;;;4.43;2.60;;;;;;;7.23;89.10;99278.31;12194253;19;20010;-82
2022/05/30 00:40:57;;;;;;;6.57;2.67;;;;;;;7.24;90.00;99271.72;12213081;19;20009;-82
2022/05/30 00:44:59;;;;;;;2.70;1.70;;;;;;;7.22;91.45;99271.13;12210948;19;20422;-81
2022/05/30 00:49:06;;;;;;;5.88;4.25;;;;;;;7.23;91.25;99277.47;12184129;19;20027;-81
2022/05/30 00:53:08;;;;;;;4.90;2.88;;;;;;;7.20;93.00;99276.03;12217987;19;20011;-81
2022/05/30 00:57:22;;;;;;;4.90;2.10;;;;;;;7.18;93.03;99278.19;12209067;19;20054;-81
2022/05/30 01:01:24;;;;;;;4.97;2.40;;;;;;;7.15;92.95;99280.56;12198197;19;20069;-81
2022/05/30 01:09:48;;;;;;;4.40;2.42;;;;;;;7.09;93.38;99268.66;12194749;19;20011;-81
2022/05/30 01:13:49;;;;;;;3.30;2.30;;;;;;;7.04;93.00;99268.53;12214085;19;20476;-82
2022/05/30 01:18:12;;;;;;;4.85;2.35;;;;;;;6.97;92.98;99274.16;12208861;19;20727;-82
2022/05/30 01:22:23;;;;;;;6.37;2.30;;;;;;;6.91;93.67;99268.81;12187340;19;20056;-81
2022/05/30 01:26:49;;;;;;;5.05;2.35;;;;;;;6.88;94.59;99274.75;12214708;19;20010;-82
2022/05/30 01:30:50;;;;;;;4.30;1.75;;;;;;;6.85;94.42;99273.34;12179825;19;20046;-82
2022/05/30 01:34:52;;;;;;;3.15;1.77;;;;;;;6.83;95.29;99267.25;12255802;19;20018;-80
2022/05/30 01:39:00;;;;;;;3.17;1.75;;;;;;;6.82;95.54;99260.13;12243377;19;20418;-81
2022/05/30 01:43:19;;;;;;;4.38;1.90;;;;;;;6.80;95.41;99256.78;12231292;19;20032;-82
2022/05/30 01:47:26;;;;;;;4.40;1.98;;;;;;;6.74;95.81;99255.81;12259425;19;20042;-82
2022/05/30 01:51:28;;;;;;;4.97;2.00;;;;;;;6.70;96.75;99248.34;12255870;19;20018;-81
2022/05/30 01:55:36;;;;;;;2.50;1.80;;;;;;;6.65;97.49;99251.78;12232025;19;20010;-81
2022/05/30 01:59:42;;;;;;;4.97;2.10;;;;;;;6.60;97.42;99246.16;12242633;19;20018;-81
2022/05/30 02:04:05;;;;;;;4.43;2.17;;;;;;;6.57;97.80;99246.66;12214209;19;20003;-82
2022/05/30 02:08:07;;;;;;;3.90;1.85;;;;;;;6.56;98.18;99250.47;12220130;19;20438;-83
2022/05/30 02:12:10;;;;;;;;;;;;;;;6.57;98.99;99253.00;12207573;19;20498;-83
2022/05/30 02:20:58;;;;;;;6.00;2.30;;;;;;;6.63;100.00;99240.22;12210130;19;20006;-82
2022/05/30 02:25:00;;;;;;;5.22;2.10;;;;;;;6.66;100.00;99233.44;12183710;19;20019;-83
2022/05/30 02:29:04;;;;;;;3.38;2.08;;;;;;;6.69;100.00;99233.78;12200596;19;20009;-82
2022/05/30 02:37:28;;;;;;;4.53;2.10;;;;;;;6.80;100.00;99238.44;12179699;19;20504;-82
2022/05/30 02:41:36;;;;;;;2.65;1.80;;;;;;;6.85;100.00;99233.09;12208189;19;20011;-82
2022/05/30 02:45:46;;;;;;;6.18;2.35;;;;;;;6.92;100.00;99230.22;12182997;19;20764;-81
2022/05/30 02:49:48;;;;;;;6.57;2.17;;;;;;;6.97;100.00;99226.75;12214037;19;20468;-81
2022/05/30 02:53:50;;;;;;;5.03;2.13;;;;;;;7.02;100.00;99226.84;12217141;19;20007;-82
2022/05/30 02:58:10;;;;;;;4.30;2.15;;;;;;;7.02;100.00;99227.72;12189360;19;20031;-82
2022/05/30 03:02:12;;;;;;;4.72;2.22;;;;;;;7.02;100.00;99221.38;12223672;19;20339;-82
2022/05/30 03:06:15;;;;;;;4.57;2.20;;;;;;;7.04;100.00;99222.81;12216352;19;20038;-82
2022/05/30 03:10:17;;;;;;;3.85;2.35;;;;;;;7.11;100.00;99224.56;12179358;19;20006;-82
2022/05/30 03:14:24;;;;;;;6.32;2.00;;;;;;;7.12;100.00;99229.81;12206346;19;20031;-81
2022/05/30 03:18:27;;;;;;;4.97;2.35;;;;;;;7.15;100.00;99237.56;12206102;19;20010;-81
2022/05/30 03:22:29;;;;;;;3.65;2.10;;;;;;;7.18;100.00;99237.06;12180593;19;20006;-82
2022/05/30 03:26:49;;;;;;;4.75;2.33;;;;;;;7.22;100.00;99237.41;12196829;19;20017;-81
2022/05/30 03:30:54;;;;;;;8.45;3.72;;;;;;;7.25;100.00;99245.16;12178213;19;20003;-83
2022/05/30 03:34:55;;;;;;;4.60;2.50;;;;;;;7.25;100.00;99248.72;12213077;19;20086;-82
2022/05/30 03:38:58;;;;;;;5.88;2.63;;;;;;;7.25;100.00;99245.97;12205511;19;20010;-82
2022/05/30 03:43:09;;;;;;;5.88;2.75;;;;;;;7.26;100.00;99246.84;12210857;19;20380;-82
2022/05/30 03:47:11;;;;;;;4.57;2.53;;;;;;;7.28;100.00;99247.41;12212717;19;20082;-82
2022/05/30 03:51:14;;;;;;;6.20;2.63;;;;;;;7.30;100.00;99251.59;12210676;19;20007;-81
2022/05/30 03:55:20;;;;;;;7.90;3.13;;;;;;;7.33;100.00;99257.66;12186509;19;20476;-81
2022/05/30 03:59:22;;;;;;;5.20;2.67;;;;;;;7.38;100.00;99257.78;12201669;19;20011;-81
2022/05/30 04:03:24;;;;;;;3.80;2.00;;;;;;;7.40;100.00;99258.34;12211589;19;20014;-82
2022/05/30 04:07:27;;;;;;;4.68;2.80;;;;;;;7.43;100.00;99252.38;12188019;19;20010;-81
2022/05/30 04:11:47;;;;;;;4.05;1.95;;;;;;;7.47;100.00;99262.63;12212218;19;20027;-82
2022/05/30 04:16:09;;;;;;;4.85;2.42;;;;;;;7.49;100.00;99270.59;12193228;19;20009;-83
2022/05/30 04:20:11;;;;;;;4.43;1.92;;;;;;;7.48;100.00;99274.41;12209798;19;20014;-82
2022/05/30 04:24:13;;;;;;;5.27;1.87;;;;;;;7.50;100.00;99277.75;12209166;19;20046;-81
2022/05/30 04:28:25;;;;;;;4.72;1.77;;;;;;;7.51;100.00;99279.41;12180090;19;21423;-81
2022/05/30 04:32:48;;;;;;;3.33;1.80;;;;;;;7.52;100.00;99286.56;12210538;19;20010;-82
2022/05/30 04:36:51;;;;;;;3.20;2.03;;;;;;;7.49;100.00;99287.03;12171844;19;20010;-81
2022/05/30 04:40:53;;;;;;;3.25;1.70;;;;;;;7.54;100.00;99289.91;12212999;19;20007;-82
2022/05/30 04:44:54;;;;;;;4.97;2.22;;;;;;;7.58;100.00;99284.75;12205745;19;20055;-81
2022/05/30 04:49:14;;;;;;;5.25;2.47;;;;;;;7.58;100.00;99282.84;12186798;19;20056;-82
2022/05/30 04:53:16;;;;;;;5.25;2.50;;;;;;;7.57;100.00;99294.91;12213801;19;20007;-82
2022/05/30 04:57:47;;;;;;;5.57;3.03;;;;;;;7.60;100.00;99288.94;12180784;19;20009;-81
2022/05/30 05:02:03;;;;;;;5.32;2.40;;;;;;;7.66;100.00;99282.47;12207031;19;20010;-81
2022/05/30 05:06:18;;;;;;;5.68;2.60;;;;;;;7.71;100.00;99285.31;12214050;19;20022;-81
2022/05/30 05:10:44;;;;;;;6.72;2.58;;;;;;;7.80;100.00;99291.25;12183162;19;20014;-81
2022/05/30 05:15:18;;;;;;;4.65;2.45;;;;;;;7.88;100.00;99306.47;12209639;19;20030;-82
2022/05/30 05:19:40;;;;;;;6.97;2.58;;;;;;;7.97;100.00;99299.50;12182174;19;20071;-82
2022/05/30 05:23:42;;;;;;;4.68;1.73;;;;;;;8.12;100.00;99307.19;12211273;19;20046;-80
2022/05/30 05:27:47;;;;;;;4.47;1.80;;;;;;;8.25;99.75;99314.31;12189010;19;20094;-81
2022/05/30 05:31:51;;;;;;;3.50;1.70;;;;;;;8.34;99.44;99321.06;12203093;19;20429;-81
2022/05/30 05:35:53;;;;;;;2.95;1.80;;;;;;;8.44;98.74;99316.59;12208213;19;20010;-82
2022/05/30 05:39:55;;;;;;;3.78;1.75;;;;;;;8.58;98.26;99317.13;12173108;19;20114;-82
2022/05/30 05:43:57;;;;;;;7.57;2.10;;;;;;;8.72;97.98;99319.56;12209439;19;20011;-81
2022/05/30 05:47:58;;;;;;;2.92;1.48;;;;;;;8.79;98.05;99325.69;12216844;19;20007;-82
2022/05/30 05:52:00;;;;;;;3.80;1.90;;;;;;;8.88;97.53;99321.44;12200123;19;20018;-83
2022/05/30 05:56:16;;;;;;;4.18;2.17;;;;;;;8.98;97.54;99321.59;12212506;19;20011;-83
2022/05/30 06:00:19;;;;;;;3.30;1.75;;;;;;;9.06;97.49;99325.84;12207039;19;20027;-82
2022/05/30 06:04:20;;;;;;;2.60;1.60;;;;;;;9.22;96.54;99327.75;12190123;19;20046;-82
2022/05/30 06:08:51;;;;;;;3.72;1.70;;;;;;;9.41;95.31;99336.53;12215007;19;20385;-82
2022/05/30 06:13:04;;;;;;;2.70;1.60;;;;;;;9.55;94.42;99337.84;12194857;19;19999;-82
2022/05/30 06:17:06;;;;;;;3.67;1.65;;;;;;;9.66;94.00;99338.78;12210897;19;20014;-81
2022/05/30 06:21:08;;;;;;;2.95;1.75;;;;;;;9.82;92.79;99337.06;12210232;19;20025;-81
2022/05/30 06:25:15;;;;;;;2.60;1.35;;;;;;;10.06;92.11;99334.88;12187234;19;20006;-82
2022/05/30 06:29:38;;;;;;;4.32;1.40;;;;;;;10.25;90.82;99338.09;12208774;19;20034;-82
2022/05/30 06:33:43;;;;;;;3.05;1.45;;;;;;;10.33;88.46;99334.91;12192839;19;20002;-81
2022/05/30 06:37:49;;;;;;;1.55;1.10;;;;;;;10.47;87.02;99347.19;12206524;19;20018;-82
2022/05/30 06:41:52;;;;;;;1.88;1.30;;;;;;;10.65;86.28;99343.22;12206968;19;20006;-82
2022/05/30 06:45:54;;;;;;;6.00;1.73;;;;;;;10.86;85.33;99341.47;12184354;19;20693;-82
2022/05/30 06:50:14;;;;;;;2.03;1.00;;;;;;;11.15;84.34;99350.25;12201921;19;20034;-82
2022/05/30 06:54:16;;;;;;;2.45;1.23;;;;;;;11.31;82.78;99342.88;12197948;19;20006;-82
2022/05/30 06:58:18;;;;;;;1.85;1.27;;;;;;;11.55;82.02;99348.00;12178535;19;20018;-82
2022/05/30 07:02:21;;;;;;;;;;;;;;;11.77;80.80;99343.13;12200201;19;20027;-82
2022/05/30 07:06:41;;;;;;;2.70;1.17;;;;;;;11.93;78.49;99354.25;12183671;19;19954;-82
2022/05/30 07:11:03;;;;;;;3.40;1.30;;;;;;;12.19;76.87;99350.50;12200790;19;20029;-82
2022/05/30 07:15:06;;;;;;;2.83;1.33;;;;;;;12.27;74.52;99349.13;12183132;19;20014;-82
2022/05/30 07:19:09;;;;;;;3.72;1.10;;;;;;;12.48;73.08;99355.53;12186870;19;20034;-82
2022/05/30 07:23:33;;;;;;;2.30;0.88;;;;;;;12.74;72.31;99356.41;12210848;19;20045;-82
2022/05/30 07:27:53;;;;;;;1.95;1.25;;;;;;;13.06;71.68;99356.16;12195104;19;20028;-82
2022/05/30 07:32:13;;;;;;;6.57;1.20;;;;;;;13.27;68.05;99356.16;12213315;19;20475;-82
2022/05/30 07:36:33;;;;;;;2.78;1.25;;;;;;;13.41;69.36;99360.84;12198903;19;20022;-82
2022/05/30 07:41:03;;;;;;;2.53;1.02;;;;;;;13.63;68.29;99354.16;12206019;19;20031;-83
2022/05/30 07:45:14;;;;;;;;;;;;;;;13.94;67.65;99359.56;12212883;19;20653;-82
2022/05/30 07:49:51;;;;;;;4.65;1.02;;;;;;;14.30;66.12;99358.28;12189172;19;20329;-83
2022/05/30 07:54:05;;;;;;;2.40;1.40;;;;;;;14.56;64.35;99359.00;12213750;19;20010;-81
2022/05/30 07:58:15;;;;;;;4.85;1.45;;;;;;;14.72;62.98;99353.34;12195408;19;20027;-81
2022/05/30 08:02:18;;;;;;;1.83;0.93;;;;;;;15.16;62.16;99361.59;12211956;19;20015;-82
2022/05/30 08:06:28;;;;;;;1.52;1.20;;;;;;;15.67;59.77;99354.69;12208221;19;20006;-82
2022/05/30 08:10:49;;;;;;;1.13;0.85;;;;;;;15.87;58.83;99354.50;12203626;19;20054;-82
2022/05/30 08:14:53;;;;;;;;;;;;;;;16.28;58.18;99364.28;12220242;19;20009;-82
2022/05/30 08:18:57;;;;;;;3.75;1.73;;;;;;;16.44;56.98;99362.13;12191189;19;19910;-82
2022/05/30 08:22:59;;;;;;;1.63;0.80;;;;;;;16.26;56.11;99370.13;12214028;19;20017;-83
2022/05/30 08:27:02;;;;;;;3.97;0.95;;;;;;;16.31;56.57;99367.28;12205846;19;20500;-82
2022/05/30 08:31:16;;;;;;;3.80;1.02;;;;;;;16.40;54.89;99365.50;12190581;19;20370;-82
2022/05/30 08:35:38;;;;;;;1.00;0.82;;;;;;;16.39;53.81;99379.72;12207782;19;20032;-81
2022/05/30 08:44:03;;;;;;;2.50;1.20;;;;;;;16.81;51.25;99372.47;12208098;19;20114;-80
2022/05/30 08:49:10;;;;;;;2.03;0.70;;;;;;;16.72;52.41;99379.81;12202684;19;20039;-81
2022/05/30 08:53:37;;;;;;;3.22;1.17;;;;;;;16.91;51.22;99369.50;12110708;19;2004431;-79
2022/05/30 08:57:42;;;;;;;3.78;1.25;;;;;;;17.41;51.08;99375.34;12180627;19;20017;-79
2022/05/30 09:01:55;;;;;;;2.50;1.00;;;;;;;18.03;50.10;99380.63;12206924;19;20007;-81
2022/05/30 09:06:26;;;;;;;1.95;1.13;;;;;;;18.00;48.85;99378.47;12199250;19;20489;-79
2022/05/30 09:10:45;;;;;;;3.40;1.00;;;;;;;18.11;46.53;99371.50;12185919;19;20026;-80
2022/05/30 09:15:11;;;;;;;3.70;0.95;;;;;;;17.99;47.09;99377.63;12223629;19;20010;-80
2022/05/30 09:19:24;;;;;;;3.63;1.20;;;;;;;17.82;46.91;99376.56;12197364;19;20021;-79
2022/05/30 09:23:26;;;;;;;5.85;1.00;;;;;;;17.84;47.63;99366.75;12249177;19;20488;-80
2022/05/30 09:27:33;;;;;;;2.85;1.40;;;;;;;18.13;47.24;99383.19;12235934;19;20007;-80
2022/05/30 09:32:19;;;;;;;2.50;1.20;;;;;;;18.44;45.22;99374.16;12244215;19;20014;-81
2022/05/30 09:36:33;;;;;;;1.80;0.90;;;;;;;18.41;43.54;99367.28;12229725;19;20011;-80
2022/05/30 09:41:06;;;;;;;2.40;0.98;;;;;;;18.81;44.18;99369.47;12187181;19;20007;-81
2022/05/30 09:45:30;;;;;;;2.78;1.05;;;;;;;18.96;42.73;99371.06;12201734;19;20345;-80
2022/05/30 09:49:44;;;;;;;4.28;1.00;;;;;;;18.75;42.08;99370.72;12183662;19;20016;-80
2022/05/30 09:53:50;;;;;;;4.15;0.80;;;;;;;18.70;42.59;99368.00;12204663;19;20398;-81
2022/05/30 09:57:57;;;;;;;4.25;1.00;;;;;;;19.15;42.42;99370.88;12181097;19;20018;-81
2022/05/30 10:02:22;;;;;;;3.85;1.20;;;;;;;19.46;42.66;99368.94;12194446;19;20405;-81
2022/05/30 10:06:27;;;;;;;2.88;1.20;;;;;;;20.11;42.02;99361.88;12205082;19;20862;-80
2022/05/30 10:11:01;;;;;;;2.55;0.95;;;;;;;20.55;41.81;99362.00;12176651;19;20865;-82
2022/05/30 10:15:26;;;;;;;6.07;1.10;;;;;;;20.18;40.44;99355.81;12195444;19;20106;-80
2022/05/30 10:19:40;;;;;;;6.65;1.20;;;;;;;20.07;41.08;99363.66;12178257;19;20011;-80
2022/05/30 10:28:49;;;;;;;4.07;1.17;;;;;;;19.83;38.96;99361.28;12178966;19;20018;-79
2022/05/30 10:33:32;;;;;;;2.53;0.90;;;;;;;19.43;40.37;99366.81;12198367;19;20136;-80
2022/05/30 10:38:03;;;;;;;3.22;1.25;;;;;;;19.13;40.93;99371.19;12178823;19;20015;-81
2022/05/30 10:42:11;;;;;;;2.47;1.30;;;;;;;19.64;40.58;99369.88;12200927;19;20014;-81
2022/05/30 10:46:33;;;;;;;4.68;1.60;;;;;;;19.54;40.95;99376.56;12173517;19;20499;-79
2022/05/30 10:50:52;;;;;;;2.05;1.00;;;;;;;19.15;40.76;99373.66;12211520;19;20448;-83
2022/05/30 10:55:04;;;;;;;2.70;1.17;;;;;;;18.60;41.98;99374.66;12192880;19;20325;-81
2022/05/30 10:59:28;;;;;;;3.38;1.52;;;;;;;19.30;40.71;99371.31;12203957;19;20006;-82
2022/05/30 11:03:41;;;;;;;2.50;1.00;;;;;;;19.96;39.68;99363.16;12214593;19;20020;-83
2022/05/30 11:07:59;;;;;;;2.67;1.20;;;;;;;20.37;38.62;99361.94;12198966;19;20026;-81
2022/05/30 11:12:13;;;;;;;4.88;1.70;;;;;;;20.62;38.24;99365.16;12206972;19;20616;-81
2022/05/30 11:16:42;;;;;;;1.67;1.38;;;;;;;20.29;37.95;99370.31;12192408;19;20013;-82
2022/05/30 11:21:41;;;;;;;3.03;1.30;;;;;;;19.12;39.20;99369.53;12206531;19;20038;-83
2022/05/30 11:26:10;;;;;;;3.72;1.30;;;;;;;18.91;40.04;99366.41;12192692;19;20034;-81
2022/05/30 11:30:24;;;;;;;3.95;1.30;;;;;;;19.43;39.17;99372.38;12205701;19;20014;-82
2022/05/30 11:34:45;;;;;;;4.28;2.30;;;;;;;19.64;38.44;99375.47;12181145;19;20480;-81
2022/05/30 11:39:38;;;;;;;4.72;1.25;;;;;;;19.96;37.91;99365.94;12208776;19;20047;-81
2022/05/30 11:43:48;;;;;;;1.48;1.00;;;;;;;21.20;36.94;99368.59;12183634;19;20358;-82
2022/05/30 11:48:15;;;;;;;1.95;1.13;;;;;;;21.56;34.69;99371.03;12203474;19;20027;-82
2022/05/30 11:52:32;;;;;;;3.85;1.50;;;;;;;20.30;36.36;99372.78;12188240;19;20017;-82
2022/05/30 11:56:40;;;;;;;2.75;1.05;;;;;;;20.23;36.34;99362.09;12202897;19;20024;-83
2022/05/30 12:00:47;;;;;;;3.08;1.20;;;;;;;20.36;36.00;99371.47;12187909;19;20007;-82
2022/05/30 12:05:18;;;;;;;2.20;1.13;;;;;;;20.43;36.50;99373.78;12206218;19;20095;-82
2022/05/30 12:09:40;;;;;;;3.63;1.20;;;;;;;20.88;34.89;99362.34;12213371;19;20023;-82
2022/05/30 12:13:57;;;;;;;2.55;1.00;;;;;;;19.83;35.50;99366.84;12186256;19;20019;-80
2022/05/30 12:27:34;;;;;;;4.10;1.10;;;;;;;18.86;36.97;99381.34;12199297;19;20376;-81
2022/05/30 12:31:39;;;;;;;2.42;1.10;;;;;;;18.83;36.86;99376.38;12178109;19;20021;-80
2022/05/30 12:35:40;;;;;;;1.83;1.10;;;;;;;19.01;37.06;99374.56;12203705;19;20022;-80
2022/05/30 12:39:49;;;;;;;1.85;1.13;;;;;;;18.88;37.10;99379.03;12187011;19;20031;-80
2022/05/30 12:43:51;;;;;;;3.70;1.65;;;;;;;18.63;37.93;99386.03;12206097;19;20035;-81
2022/05/30 12:47:55;;;;;;;4.20;1.10;;;;;;;18.50;38.43;99377.66;12206154;19;20350;-80
2022/05/30 12:52:14;;;;;;;3.25;1.40;;;;;;;18.28;39.11;99396.00;12173422;19;20496;-81
2022/05/30 12:56:39;;;;;;;3.63;1.67;;;;;;;19.18;38.77;99392.56;12199634;19;20020;-80
2022/05/30 13:00:41;;;;;;;4.65;1.55;;;;;;;20.71;36.36;99389.19;12176523;19;20018;-81
2022/05/30 13:04:51;;;;;;;2.77;1.40;;;;;;;20.57;35.35;99396.09;12206481;19;20019;-80
2022/05/30 13:09:06;;;;;;;2.30;1.00;;;;;;;20.65;36.25;99395.28;12204909;19;20027;-81
2022/05/30 13:13:21;;;;;;;4.20;1.42;;;;;;;20.65;35.35;99384.91;12184448;19;20010;-80
2022/05/30 13:17:58;;;;;;;4.93;1.50;;;;;;;20.63;36.04;99384.41;12209599;19;20018;-80
2022/05/30 13:22:00;;;;;;;4.40;1.83;;;;;;;20.36;36.74;99388.28;12178426;19;20087;-81
2022/05/30 13:26:12;;;;;;;4.38;1.40;;;;;;;20.19;37.67;99391.00;12209328;19;20019;-81
2022/05/30 13:30:23;;;;;;;2.92;1.25;;;;;;;20.45;37.27;99389.13;12197782;19;20010;-81
2022/05/30 13:34:30;;;;;;;3.20;1.33;;;;;;;22.92;34.87;99391.47;12180702;19;20357;-81
2022/05/30 13:38:42;;;;;;;6.65;2.45;;;;;;;25.57;29.75;99391.06;12214873;19;20053;-84
2022/05/30 13:42:58;;;;;;;2.70;1.10;;;;;;;27.55;28.48;99389.81;12177967;19;20365;-82
2022/05/30 13:47:20;;;;;;;2.92;1.40;;;;;;;29.20;25.34;99384.03;12208620;19;20522;-80
2022/05/30 13:51:42;;;;;;;4.82;1.40;;;;;;;27.16;26.63;99383.34;12211745;19;20380;-79
2022/05/30 13:55:55;;;;;;;;;;;;;;;25.08;29.10;99385.63;12195913;19;20469;-78
2022/05/30 14:00:00;;;;;;;2.63;1.27;;;;;;;24.09;30.23;99382.06;12205283;19;20352;-81
2022/05/30 14:04:27;;;;;;;2.75;1.10;;;;;;;24.82;28.92;99371.94;12185177;19;20460;-79
2022/05/30 14:08:36;;;;;;;2.53;1.15;;;;;;;24.85;28.81;99374.88;12213952;19;20516;-79
2022/05/30 14:12:45;;;;;;;3.50;1.42;;;;;;;24.37;28.82;99372.94;12185579;19;20018;-80
2022/05/30 14:16:58;;;;;;;1.35;1.05;;;;;;;23.37;30.42;99364.66;12204006;19;20464;-79
2022/05/30 14:21:07;;;;;;;1.67;1.13;;;;;;;25.34;28.39;99365.44;12197506;19;20077;-79
2022/05/30 14:25:42;;;;;;;3.72;0.80;;;;;;;27.20;26.95;99368.06;12181748;19;20574;-80
2022/05/30 14:29:51;;;;;;;2.28;1.00;;;;;;;25.58;27.18;99359.69;12191848;19;20040;-80
2022/05/30 14:34:14;;;;;;;2.75;1.08;;;;;;;24.10;28.88;99373.28;12174155;19;20129;-80
2022/05/30 14:38:26;;;;;;;3.08;1.17;;;;;;;23.19;29.83;99359.19;12202200;19;20010;-81
2022/05/30 14:42:33;;;;;;;3.55;1.10;;;;;;;22.37;30.38;99363.59;12200930;19;20023;-78
2022/05/30 14:46:42;;;;;;;1.88;0.90;;;;;;;21.82;30.64;99374.56;12180993;19;20096;-79
2022/05/30 14:50:49;;;;;;;2.95;1.50;;;;;;;21.12;31.73;99373.06;12206264;19;20011;-79
2022/05/30 14:54:52;;;;;;;3.28;0.98;;;;;;;20.68;32.32;99380.63;12194396;19;20480;-79
2022/05/30 14:59:04;;;;;;;3.05;1.10;;;;;;;20.36;32.90;99374.28;12209846;19;20034;-81
2022/05/30 15:07:45;;;;;;;2.58;1.05;;;;;;;21.13;32.57;99371.91;12208122;19;20007;-77
2022/05/30 15:11:47;;;;;;;2.33;0.77;;;;;;;21.35;32.51;99373.69;12226871;19;20062;-77
2022/05/30 15:15:49;;;;;;;5.55;1.45;;;;;;;21.64;32.90;99372.16;12202350;19;20026;-78
2022/05/30 15:19:53;;;;;;;1.52;0.93;;;;;;;22.52;31.97;99371.47;12236878;19;20011;-79
2022/05/30 15:23:55;;;;;;;1.77;0.80;;;;;;;23.86;30.63;99370.44;12219332;19;20010;-81
2022/05/30 15:27:57;;;;;;;2.80;0.98;;;;;;;23.31;30.71;99375.28;12205361;19;20014;-80
2022/05/30 15:32:04;;;;;;;2.95;0.90;;;;;;;22.78;31.25;99362.00;12201822;19;20765;-79
2022/05/30 15:36:08;;;;;;;4.43;1.00;;;;;;;22.66;31.76;99366.38;12211451;19;20746;-80
2022/05/30 15:40:30;;;;;;;3.67;1.20;;;;;;;22.28;31.11;99358.06;12195341;19;20470;-81
2022/05/30 15:44:35;;;;;;;3.93;1.30;;;;;;;22.06;30.77;99361.94;12224860;19;20011;-80
2022/05/30 15:48:37;;;;;;;2.03;1.10;;;;;;;21.87;30.40;99359.56;12193706;19;20027;-78
2022/05/30 15:57:19;;;;;;;3.08;0.90;;;;;;;20.53;31.00;99355.91;12210225;19;20003;-80
2022/05/30 16:01:21;;;;;;;7.57;4.32;;;;;;;19.99;31.59;99370.88;12180414;19;20007;-80
2022/05/30 16:05:23;;;;;;;3.63;0.82;;;;;;;20.09;31.79;99382.94;12210316;19;20021;-81
2022/05/30 16:09:32;;;;;;;1.40;1.00;;;;;;;20.45;31.51;99369.53;12215207;19;20571;-80
2022/05/30 16:13:35;;;;;;;2.33;0.80;;;;;;;20.82;31.30;99372.91;12188655;19;20527;-78
2022/05/30 16:17:37;;;;;;;3.05;0.82;;;;;;;20.87;31.92;99372.72;12210647;19;20007;-81
2022/05/30 16:21:43;;;;;;;2.13;1.27;;;;;;;20.69;32.26;99371.88;12184034;19;20078;-81
2022/05/30 16:25:44;;;;;;;3.00;1.00;;;;;;;20.76;32.41;99379.78;12210159;19;20315;-80
2022/05/30 16:29:46;;;;;;;2.80;1.00;;;;;;;20.74;32.14;99367.31;12199694;19;20010;-81
2022/05/30 16:33:48;;;;;;;2.20;1.07;;;;;;;20.26;32.24;99369.81;12181714;19;20667;-82
2022/05/30 16:37:50;;;;;;;1.73;0.95;;;;;;;19.82;33.24;99368.03;12214084;19;20507;-82
2022/05/30 16:41:53;;;;;;;1.67;1.00;;;;;;;19.85;33.73;99372.97;12211382;19;20058;-80
2022/05/30 16:45:55;;;;;;;1.92;0.88;;;;;;;19.98;33.77;99363.63;12183193;19;20000;-81
2022/05/30 16:49:57;;;;;;;1.97;1.17;;;;;;;19.99;33.76;99368.09;12212783;19;20010;-81
2022/05/30 16:53:58;;;;;;;2.10;1.35;;;;;;;19.89;34.39;99382.34;12206324;19;20015;-82
2022/05/30 16:58:01;;;;;;;2.20;0.93;;;;;;;19.66;33.61;99383.53;12180809;19;20480;-82
2022/05/30 17:02:03;;;;;;;2.65;1.10;;;;;;;19.35;33.67;99387.13;12206051;19;20023;-82
2022/05/30 17:06:06;;;;;;;2.30;1.30;;;;;;;19.10;34.21;99383.00;12206913;19;20093;-82
2022/05/30 17:10:09;;;;;;;1.98;0.93;;;;;;;19.01;34.29;99384.91;12180421;19;20366;-81
2022/05/30 17:14:10;;;;;;;2.47;1.10;;;;;;;18.88;34.85;99389.38;12193815;19;20075;-80
2022/05/30 17:18:13;;;;;;;1.70;1.08;;;;;;;18.80;35.51;99387.34;12180804;19;20019;-79
2022/05/30 17:22:14;;;;;;;2.80;1.17;;;;;;;18.78;35.61;99398.00;12182850;19;20010;-80
2022/05/30 17:29:05;;;;;;;3.55;1.23;;;;;;;18.58;36.03;99397.28;12205329;19;20070;-81
2022/05/30 17:30:39;;;;;;;7.72;1.35;;;;;;;18.61;36.29;99393.88;12175763;19;20439;-81
2022/05/30 17:34:41;;;;;;;4.40;1.50;;;;;;;18.52;36.52;99400.50;12205826;19;21232;-81
2022/05/30 17:38:42;;;;;;;2.25;1.02;;;;;;;18.37;36.72;99398.88;12200852;19;20362;-79
2022/05/30 17:42:44;;;;;;;3.08;0.90;;;;;;;18.38;36.95;99393.00;12180244;19;19999;-80
2022/05/30 17:47:11;;;;;;;4.57;1.17;;;;;;;18.46;37.21;99394.22;12200037;19;20022;-83
2022/05/30 17:51:22;;;;;;;1.80;1.20;;;;;;;18.35;36.71;99403.94;12203200;19;20002;-81
2022/05/30 17:55:27;;;;;;;1.75;1.13;;;;;;;18.27;37.00;99410.25;12182403;19;20011;-81
2022/05/30 17:59:30;;;;;;;1.17;0.75;;;;;;;18.12;38.17;99415.00;12208788;19;20018;-83
2022/05/30 18:03:32;;;;;;;5.07;1.53;;;;;;;17.78;38.50;99404.22;12198061;19;20965;-82
2022/05/30 18:07:50;;;;;;;3.15;1.27;;;;;;;17.66;38.76;99413.06;12189194;19;20014;-79
2022/05/30 18:12:30;;;;;;;3.33;1.23;;;;;;;17.58;39.75;99413.78;12198636;19;20014;-79
2022/05/30 18:16:53;;;;;;;2.53;1.48;;;;;;;17.56;39.57;99407.69;12171989;19;20703;-81
2022/05/30 18:21:34;;;;;;;2.15;1.50;;;;;;;17.41;39.99;99408.78;12196560;19;20015;-82
2022/05/30 18:25:38;;;;;;;1.98;0.98;;;;;;;17.14;40.05;99405.91;12191930;19;20547;-84
2022/05/30 18:29:40;;;;;;;4.10;1.00;;;;;;;16.86;41.48;99402.97;12201225;19;20499;-82
2022/05/30 18:33:47;;;;;;;4.25;1.00;;;;;;;16.57;42.24;99409.50;12172074;19;20025;-80
2022/05/30 18:37:55;;;;;;;2.35;1.40;;;;;;;16.25;43.44;99410.19;12204901;19;20127;-80
2022/05/30 18:42:11;;;;;;;2.03;1.27;;;;;;;15.99;43.62;99409.66;12193870;19;20050;-81
2022/05/30 18:46:30;;;;;;;4.22;1.30;;;;;;;15.70;45.17;99418.88;12179642;19;20007;-80
2022/05/30 18:50:33;;;;;;;3.38;1.45;;;;;;;15.49;45.42;99422.91;12199971;19;20732;-81
2022/05/30 18:54:36;;;;;;;2.45;1.35;;;;;;;15.24;46.20;99430.34;12187655;19;20015;-81
2022/05/30 18:58:46;;;;;;;3.35;1.48;;;;;;;14.98;47.45;99438.03;12211813;19;20023;-80
2022/05/30 19:02:56;;;;;;;2.25;1.63;;;;;;;14.71;48.17;99432.94;12194788;19;20346;-82
2022/05/30 19:06:58;;;;;;;5.63;2.10;;;;;;;14.49;48.24;99433.31;12181390;19;20007;-81
2022/05/30 19:11:16;;;;;;;2.35;1.30;;;;;;;14.25;49.55;99429.56;12201969;19;20504;-80
2022/05/30 19:19:53;;;;;;;1.98;1.50;;;;;;;13.81;50.91;99427.47;12198133;19;20015;-83
2022/05/30 19:23:55;;;;;;;2.83;1.70;;;;;;;13.57;52.12;99439.16;12211396;19;20010;-81
2022/05/30 19:28:00;;;;;;;3.13;1.55;;;;;;;13.41;52.12;99434.72;12193281;19;20078;-82
2022/05/30 19:32:03;;;;;;;4.30;1.40;;;;;;;13.25;52.32;99435.81;12205622;19;20002;-81
2022/05/30 19:36:05;;;;;;;;;;;;;;;13.09;53.74;99451.59;12208090;19;19999;-84
2022/05/30 19:40:07;;;;;;;2.50;1.35;;;;;;;12.93;53.69;99447.94;12206080;19;19978;-81
2022/05/30 19:44:15;;;;;;;1.13;1.00;;;;;;;12.79;54.40;99450.44;12210954;19;20078;-82
2022/05/30 19:48:17;;;;;;;1.85;1.40;;;;;;;12.68;54.49;99463.38;12213473;19;20015;-81
2022/05/30 19:52:24;;;;;;;3.53;1.87;;;;;;;12.58;54.84;99460.56;12198512;19;20014;-81
2022/05/30 19:56:29;;;;;;;2.17;1.45;;;;;;;12.47;55.73;99454.19;12213348;19;20011;-80
2022/05/30 20:00:32;;;;;;;1.88;1.60;;;;;;;12.38;56.23;99466.88;12222732;19;20018;-81
2022/05/30 20:04:34;;;;;;;2.42;1.40;;;;;;;12.29;55.88;99465.75;12178031;19;20399;-80
2022/05/30 20:08:36;;;;;;;4.00;1.13;;;;;;;12.20;57.14;99470.13;12218903;19;20013;-81
2022/05/30 20:12:38;;;;;;;2.22;1.38;;;;;;;12.13;56.57;99464.00;12189928;19;20014;-81